• Join FlightAware (Why Join?)
  • Login
  • US Flag 
03:12AM EST


 

Airport Tracker/Info


-or-


 

Live Flight TrackerFlight Track Log ✈ DAL61 ✈ 11-May-2013 ✈ KATL - SBGL / GIG

Flight Track Log - Related Links

Times and Time Zones

All times are in EDT time to prevent confusion due to time zone crossing. See the DAL61 flight status page for this flight to view local times or setup timezone preferences in your user account.

Time Position Orientation Groundspeed Altitude Reporting Facility
EDT Latitude Longitude Course Direction KTS MPH feet Rate Location/Type
10:55PM 33.6347 -84.4831 145° Southeast 469 540 2,500  Level Atlanta Center
10:56PM 33.6333 -84.5167 267° West 209 241 3,000 2,100 Climbing Atlanta TRACON
10:57PM 33.6333 -84.5833 270° West 243 280 5,200 2,400 Climbing Atlanta TRACON
10:58PM 33.2585 -84.1415 140° Southeast  Level FlightAware Approximate
10:58PM 33.5833 -84.6500 228° Southwest 279 321 7,800  Level Atlanta TRACON
10:59PM 33.1599 -84.0431 140° Southeast  Level FlightAware Approximate
10:59PM 33.5333 -84.5833 132° Southeast 312 359 10,400  Level Atlanta TRACON
11:00PM 33.0646 -83.9510 145° Southeast  Level FlightAware Approximate
11:00PM 33.4667 -84.5000 134° Southeast 368 423 11,500  Level Atlanta TRACON
11:01PM 33.3328 -84.3222 132° Southeast 400 460 14,000 1,800 Climbing Atlanta Center
11:02PM 33.2556 -84.2178 131° Southeast 418 481 16,500 2,280 Climbing Atlanta Center
11:03PM 33.1786 -84.1083 130° Southeast 424 488 18,600 1,740 Climbing Atlanta Center
11:04PM 33.0950 -83.9942 131° Southeast 446 513 20,000 1,320 Climbing Atlanta Center
11:05PM 33.0053 -83.9100 142° Southeast 451 519 21,300 1,380 Climbing Atlanta Center
11:06PM 32.8944 -83.8186 145° Southeast 464 534 22,800 2,280 Climbing Atlanta Center
11:07PM 32.7878 -83.7300 145° Southeast 478 550 25,900 2,340 Climbing Atlanta Center
11:08PM 32.6853 -83.6439 145° Southeast 467 537 27,500 1,320 Climbing Atlanta Center
11:09PM 32.5847 -83.5433 140° Southeast 462 532 28,600 1,080 Climbing Atlanta Center
11:10PM 32.4861 -83.4453 140° Southeast 467 537 29,700 660 Climbing Atlanta Center
11:11PM 32.3853 -83.3428 139° Southeast 473 544 30,000 120 Climbing Atlanta Center
11:12PM 32.2867 -83.2428 139° Southeast 473 544 30,000  Level Atlanta Center
11:13PM 32.2081 -83.1650 140° Southeast 475 547 30,000  Level Jacksonville Center
11:14PM 32.1206 -83.0789 140° Southeast 475 547 30,000  Level Jacksonville Center
11:15PM 32.0183 -82.9783 140° Southeast 475 547 30,000  Level Jacksonville Center
11:16PM 31.9181 -82.8803 140° Southeast 475 547 30,000  Level Jacksonville Center
11:17PM 31.8178 -82.7825 140° Southeast 475 547 30,000  Level Jacksonville Center
11:18PM 31.7194 -82.6850 140° Southeast 475 547 30,000  Level Jacksonville Center
11:19PM 31.6233 -82.5850 138° Southeast 464 534 30,000  Level Jacksonville Center
11:20PM 31.5292 -82.4831 137° Southeast 464 534 30,000  Level Jacksonville Center
11:21PM 31.4306 -82.3836 139° Southeast 464 534 30,000  Level Jacksonville Center
11:22PM 31.3258 -82.2772 139° Southeast 464 534 30,000  Level Jacksonville Center
11:23PM 31.2292 -82.1758 138° Southeast 464 534 30,000  Level Jacksonville Center
11:24PM 31.1325 -82.0747 138° Southeast 464 534 30,000  Level Jacksonville Center
11:25PM 31.0336 -81.9736 139° Southeast 464 534 30,000  Level Jacksonville Center
11:26PM 30.9347 -81.8731 139° Southeast 464 534 30,000  Level Jacksonville Center
11:27PM 30.8358 -81.7725 139° Southeast 464 534 30,000  Level Jacksonville Center
11:28PM 30.7389 -81.6697 138° Southeast 464 534 30,000  Level Jacksonville Center
11:29PM 30.6439 -81.5717 138° Southeast 464 534 30,000  Level Jacksonville Center
11:30PM 30.5447 -81.4742 140° Southeast 464 534 30,000  Level Jacksonville Center
11:31PM 30.4603 -81.3864 138° Southeast 464 534 30,000  Level Jacksonville Center
11:32PM 30.3608 -81.2892 140° Southeast 464 534 30,000  Level Jacksonville Center
11:33PM 30.2656 -81.1897 138° Southeast 464 534 30,000  Level Jacksonville Center
11:34PM 30.1683 -81.0956 140° Southeast 464 534 30,000  Level Jacksonville Center
11:35PM 30.0667 -80.9967 140° Southeast 464 534 30,000  Level Jacksonville Center
11:37PM 29.8917 -80.8181 138° Southeast 471 542 30,000  Level Miami Center
11:38PM 29.7922 -80.7236 140° Southeast 471 542 30,000  Level Miami Center
11:39PM 29.7011 -80.6203 135° Southeast 462 532 30,000  Level Miami Center
11:40PM 29.6206 -80.5053 129° Southeast 456 525 30,000  Level Miami Center
11:41PM 29.5381 -80.3928 130° Southeast 461 531 30,000  Level Miami Center
11:42PM 29.4553 -80.2806 130° Southeast 461 531 30,000  Level Miami Center
11:43PM 29.3703 -80.1683 131° Southeast 461 531 30,000  Level Miami Center
11:44PM 29.2894 -80.0589 130° Southeast 461 531 30,000  Level Miami Center
11:45PM 29.2083 -79.9472 130° Southeast 461 531 30,000  Level Miami Center
11:46PM 29.1169 -79.8425 135° Southeast 453 521 30,000  Level Miami Center
11:47PM 29.0292 -79.7450 136° Southeast 458 527 30,000 300 Level Miami Center
11:48PM 28.9350 -79.6456 137° Southeast 458 527 30,600 540 Climbing Miami Center
11:49PM 28.8411 -79.5389 135° Southeast 465 535 31,100 600 Climbing Miami Center
11:50PM 28.7472 -79.4322 135° Southeast 475 547 31,900 420 Climbing Miami Center
11:51PM 28.6531 -79.3236 135° Southeast 480 552 32,000  Climbing Miami Center
11:52PM 28.5547 -79.2153 136° Southeast 480 552 31,900  Descending Miami Center
11:53PM 28.4561 -79.1092 137° Southeast 480 552 32,000  Climbing Miami Center
11:54PM 28.3597 -79.0058 137° Southeast 480 552 32,000 -60 Level Miami Center
11:55PM 28.2650 -78.9097 138° Southeast 474 545 31,900  Descending Miami Center
11:56PM 28.1578 -78.8231 145° Southeast 466 536 32,000  Climbing Miami Center
11:57PM 28.0461 -78.7386 146° Southeast 472 543 32,000  Level Miami Center
11:58PM 27.9364 -78.6664 150° Southeast 477 549 32,000  Level Miami Center
11:59PM 27.8225 -78.5869 148° Southeast 477 549 32,000  Level Miami Center
12:00AM 27.7086 -78.5128 150° Southeast 477 549 32,000  Level Miami Center
12:01AM 27.5989 -78.4244 144° Southeast 482 555 32,000  Level Miami Center
12:02AM 27.5083 -78.3083 131° Southeast 476 548 32,000  Level Miami Center
12:03AM 27.4300 -78.1903 127° Southeast 471 542 32,000  Level Miami Center
12:04AM 27.3494 -78.0958 134° Southeast 473 544 32,000  Level Miami Center
12:05AM 27.2689 -77.9711 126° Southeast 473 544 32,000  Level Miami Center
12:06AM 27.1861 -77.8536 128° Southeast 473 544 32,000  Level Miami Center
12:07AM 27.1014 -77.7386 130° Southeast 480 552 32,000  Level Miami Center
12:08AM 27.0183 -77.6167 127° Southeast 480 552 32,000  Level Miami Center
12:09AM 26.9333 -77.5042 130° Southeast 467 537 32,000  Level Miami Center
12:10AM 26.8419 -77.3803 130° Southeast 472 543 32,000  Level Miami Center
12:11AM 26.7608 -77.2706 130° Southeast 472 543 32,000  Level Miami Center
12:12AM 26.6753 -77.1494 128° Southeast 479 551 32,000  Level Miami Center
12:13AM 26.5919 -77.0331 129° Southeast 479 551 32,000  Level Miami Center
12:14AM 26.5064 -76.9189 130° Southeast 478 550 32,000  Level Miami Center
12:15AM 26.4228 -76.8031 129° Southeast 478 550 32,000  Level Miami Center
12:16AM 26.3369 -76.6872 130° Southeast 478 550 32,000  Level Miami Center
12:17AM 26.2553 -76.5783 130° Southeast 478 550 32,000  Level Miami Center
12:18AM 26.1694 -76.4606 129° Southeast 478 550 32,000  Level Miami Center
12:19AM 26.0814 -76.3428 130° Southeast 486 559 32,000  Level Miami Center
12:20AM 25.9972 -76.2322 130° Southeast 474 545 32,000  Level Miami Center
12:21AM 25.9131 -76.1169 129° Southeast 484 557 32,000  Level Miami Center
12:22AM 25.8269 -76.0022 130° Southeast 484 557 32,000  Level Miami Center
12:23AM 25.7406 -75.8875 130° Southeast 479 551 32,000  Level Miami Center
12:24AM 25.6581 -75.7753 129° Southeast 474 545 32,000  Level Miami Center
12:25AM 25.5694 -75.6583 130° Southeast 481 554 32,000  Level Miami Center
12:26AM 25.4767 -75.5419 131° Southeast 486 559 32,000  Level Miami Center
12:27AM 25.3939 -75.4278 129° Southeast 480 552 32,000  Level Miami Center
12:28AM 25.3008 -75.3142 132° Southeast 485 558 32,100 540 Climbing Miami Center
12:29AM 25.2139 -75.2003 130° Southeast 485 558 33,100 900 Climbing Miami Center
12:30AM 25.1269 -75.0844 130° Southeast 485 558 33,900 420 Climbing Miami Center
12:31AM 25.0378 -74.9689 130° Southeast 479 551 34,000  Climbing Miami Center
12:32AM 24.9528 -74.8578 130° Southeast 479 551 34,000  Level Miami Center
12:33AM 24.8569 -74.7425 132° Southeast 485 558 34,000  Level Miami Center
12:34AM 24.7633 -74.6319 133° Southeast 485 558 34,000  Level Miami Center
12:35AM 24.6739 -74.5217 132° Southeast 490 564 34,000  Level Miami Center
12:36AM 24.5803 -74.4136 134° Southeast 490 564 34,000  Level Miami Center
12:37AM 24.4928 -74.3014 131° Southeast 490 564 34,000  Level Miami Center
12:38AM 24.4092 -74.1867 129° Southeast 484 557 34,000  Level Miami Center
12:39AM 24.3214 -74.0678 129° Southeast 490 564 34,000  Level Miami Center
12:40AM 24.2356 -73.9467 128° Southeast 495 570 34,000  Level Miami Center
12:41AM 24.1517 -73.8303 128° Southeast 500 575 34,000  Level Miami Center
12:42AM 24.0617 -73.7186 131° Southeast 494 568 34,000  Level Miami Center
12:43AM 23.9714 -73.6050 131° Southeast 494 568 34,000  Level Miami Center
12:44AM 23.8789 -73.4869 131° Southeast 500 575 34,000  Level Miami Center
12:45AM 23.7864 -73.3736 132° Southeast 500 575 34,000  Level Miami Center
12:46AM 23.6981 -73.2603 130° Southeast 500 575 34,000  Level Miami Center
12:47AM 23.6078 -73.1472 131° Southeast 500 575 34,000  Level Miami Center
12:48AM 23.5150 -73.0322 131° Southeast 495 570 34,000  Level Miami Center
12:49AM 23.4264 -72.9194 131° Southeast 501 577 34,000  Level Miami Center
12:50AM 23.3464 -72.8181 131° Southeast 501 577 34,000  Level Miami Center
12:51AM 23.2536 -72.7078 132° Southeast 495 570 34,000  Level Miami Center
12:52AM 23.1564 -72.5936 133° Southeast 500 575 34,000  Level Miami Center
12:53AM 23.0697 -72.4814 130° Southeast 500 575 34,000  Level Miami Center
12:54AM 22.9764 -72.3606 130° Southeast 481 554 34,000  Level Miami Center
12:55AM 22.8875 -72.2533 132° Southeast 481 554 34,000  Level Miami Center
12:56AM 22.7983 -72.1417 131° Southeast 481 554 34,000  Level Miami Center
12:57AM 22.7094 -72.0344 132° Southeast 481 554 34,000  Level Miami Center
12:58AM 22.6225 -71.9253 131° Southeast 481 554 34,000  Level Miami Center
12:59AM 22.5353 -71.8142 130° Southeast 481 554 34,000  Level Miami Center
01:00AM 22.4439 -71.7053 132° Southeast 481 554 34,000  Level Miami Center
01:01AM 22.3567 -71.5967 131° Southeast 481 554 34,000  Level Miami Center
01:02AM 22.2672 -71.4881 132° Southeast 481 554 34,000  Level Miami Center
01:03AM 22.1781 -71.3819 132° Southeast 481 554 34,000  Level Miami Center
01:04AM 22.0886 -71.2736 132° Southeast 481 554 34,000  Level Miami Center
01:05AM 21.9969 -71.1658 133° Southeast 481 554 34,000  Level Miami Center
01:06AM 21.9094 -71.0578 131° Southeast 481 554 34,000  Level Miami Center
01:07AM 21.8197 -70.9500 132° Southeast 481 554 34,000  Level Miami Center
01:08AM 21.7300 -70.8422 132° Southeast 481 554 34,000  Level Miami Center
01:09AM 21.6403 -70.7369 133° Southeast 481 554 34,000  Level Miami Center
01:10AM 21.5681 -70.6511 132° Southeast 481 554 34,000  Level Miami Center
01:11AM 21.4694 -70.5356 133° Southeast 481 554 34,000  Level Miami Center
01:12AM 21.3772 -70.4264 132° Southeast 481 554 34,000  Level Miami Center
01:13AM 21.2875 -70.3217 133° Southeast 481 554 34,000  Level Miami Center
01:14AM 21.1997 -70.2214 133° Southeast 476 548 34,000  Level Miami Center
01:15AM 21.1075 -70.1147 133° Southeast 476 548 34,000  Level Miami Center
01:16AM 21.0097 -70.0200 138° Southeast 481 554 34,000  Level Miami Center
01:17AM 20.9194 -69.9158 133° Southeast 475 547 34,000  Level Miami Center
01:18AM 20.8272 -69.8117 133° Southeast 475 547 34,000  Level Miami Center
01:19AM 20.7414 -69.7078 131° Southeast 475 547 34,000  Level Miami Center
01:20AM 20.6511 -69.6042 133° Southeast 480 552 34,000  Level Miami Center
01:21AM 20.5586 -69.4983 133° Southeast 480 552 34,000  Level Miami Center
01:22AM 20.4703 -69.3947 132° Southeast 480 552 34,000 -120 Level Miami Center
01:23AM 20.3778 -69.2894 133° Southeast 480 552 33,800 -540 Descending Miami Center
01:24AM 20.2872 -69.1839 132° Southeast 480 552 33,000 -420 Descending Miami Center
01:25AM 20.1986 -69.0764 131° Southeast 480 552 33,000  Level Miami Center
01:26AM 20.1061 -68.9736 134° Southeast 480 552 33,000  Level Miami Center
01:27AM 20.0136 -68.8711 134° Southeast 480 552 33,000  Level Miami Center
01:28AM 19.9125 -68.7714 137° Southeast 480 552 33,000  Level Miami Center
01:29AM 19.8181 -68.6733 136° Southeast 486 559 33,000  Level Miami Center
01:30AM 19.7089 -68.5764 140° Southeast 501 577 33,000  Level Miami Center
01:31AM 19.6122 -68.4769 136° Southeast 496 571 33,000  Level Miami Center
01:31AM 19.5667 -68.4167 129° Southeast 490 564 33,000  Level San Juan Center
01:32AM 19.4667 -68.3333 142° Southeast 480 552 33,000  Level San Juan Center
01:33AM 19.3667 -68.2333 137° Southeast 480 552 33,000  Level San Juan Center
01:34AM 19.2667 -68.1333 137° Southeast 490 564 33,000  Level San Juan Center
01:35AM 19.1667 -68.0333 137° Southeast 480 552 33,000  Level San Juan Center
01:36AM 19.0667 -67.9500 142° Southeast 480 552 33,000  Level San Juan Center
01:37AM 18.9667 -67.8500 137° Southeast 490 564 33,000  Level San Juan Center
01:38AM 18.8667 -67.7500 137° Southeast 480 552 33,000  Level San Juan Center
01:39AM 18.7667 -67.6500 137° Southeast 490 564 33,000  Level San Juan Center
01:40AM 18.6667 -67.5667 142° Southeast 480 552 33,000  Level San Juan Center
01:41AM 18.5667 -67.4667 137° Southeast 490 564 33,000  Level San Juan Center
01:42AM 18.4667 -67.3667 137° Southeast 490 564 33,000  Level San Juan Center
01:43AM 18.3667 -67.2667 136° Southeast 490 564 33,000  Level San Juan Center
01:44AM 18.2667 -67.1667 136° Southeast 480 552 33,000  Level San Juan Center
01:45AM 18.1667 -67.0833 142° Southeast 490 564 33,000  Level San Juan Center
01:46AM 18.0667 -66.9833 136° Southeast 490 564 33,000  Level San Juan Center
01:47AM 17.9667 -66.8833 136° Southeast 490 564 33,000  Level San Juan Center
01:48AM 17.8667 -66.7833 136° Southeast 490 564 33,000  Level San Juan Center
01:49AM 17.7667 -66.7000 142° Southeast 490 564 33,000  Level San Juan Center
01:50AM 17.6667 -66.6000 136° Southeast 480 552 33,000  Level San Juan Center
01:51AM 17.5667 -66.5000 136° Southeast 490 564 33,000  Level San Juan Center
01:52AM 17.4667 -66.4000 136° Southeast 490 564 33,000  Level San Juan Center
01:53AM 17.3500 -66.3000 141° Southeast 490 564 33,000  Level San Juan Center
01:54AM 17.2500 -66.2000 136° Southeast 490 564 33,000  Level San Juan Center
01:55AM 17.1500 -66.1000 136° Southeast 490 564 33,000  Level San Juan Center
01:56AM 17.0500 -66.0000 136° Southeast 500 575 33,000  Level San Juan Center
01:57AM 16.9333 -65.9000 141° Southeast 500 575 33,000  Level San Juan Center
01:58AM 16.8333 -65.8000 136° Southeast 510 587 33,000  Level San Juan Center
01:59AM 16.7333 -65.7000 136° Southeast 520 598 33,000  Level San Juan Center
02:00AM 16.6167 -65.6000 141° Southeast 520 598 33,000  Level San Juan Center
02:01AM 16.5167 -65.5000 136° Southeast 520 598 33,000  Level San Juan Center
02:02AM 16.4000 -65.4000 141° Southeast 510 587 33,000  Level San Juan Center
02:03AM 16.3000 -65.3000 136° Southeast 510 587 33,000  Level San Juan Center
02:04AM 16.1833 -65.2167 146° Southeast 500 575 33,000  Level San Juan Center
02:05AM 16.0667 -65.1167 141° Southeast 500 575 33,000  Level San Juan Center
02:06AM 15.9667 -65.0333 141° Southeast 500 575 33,000  Level San Juan Center
02:07AM 15.8667 -64.9333 136° Southeast 490 564 33,000  Level San Juan Center
02:08AM 15.7667 -64.8500 141° Southeast 470 541 33,000  Level San Juan Center
02:09AM 15.6833 -64.7500 131° Southeast 500 575 33,000  Level San Juan Center
02:10AM 15.5833 -64.6500 136° Southeast 490 564 33,000  Level San Juan Center
02:11AM 15.4833 -64.5500 136° Southeast 490 564 33,000  Level San Juan Center
02:12AM 15.3833 -64.4667 141° Southeast 480 552 33,000  Level San Juan Center
02:13AM 15.2667 -64.3833 145° Southeast 480 552 33,000  Level San Juan Center
02:14AM 15.1667 -64.2833 136° Southeast 490 564 33,000  Level San Juan Center
02:15AM 15.0667 -64.1833 136° Southeast 490 564 33,000  Level San Juan Center
02:16AM 14.9667 -64.1000 141° Southeast 490 564 33,000  Level San Juan Center
02:17AM 14.8500 -64.0333 151° Southeast 480 552 33,000  Level San Juan Center
02:19AM 14.7115 -63.9507 150° Southeast  Level FlightAware Approximate
02:26AM 13.9222 -63.4887 151° Southeast  Level FlightAware Approximate
02:27AM 13.8084 -63.4248 151° Southeast  Level FlightAware Approximate
02:28AM 13.6945 -63.3610 151° Southeast  Level FlightAware Approximate
02:29AM 13.5807 -63.2973 151° Southeast  Level FlightAware Approximate
02:30AM 13.4668 -63.2336 151° Southeast  Level FlightAware Approximate
02:31AM 13.3529 -63.1700 151° Southeast  Level FlightAware Approximate
02:32AM 13.2390 -63.1064 151° Southeast  Level FlightAware Approximate
02:33AM 13.1250 -63.0429 152° Southeast  Level FlightAware Approximate
02:34AM 13.0111 -62.9795 152° Southeast  Level FlightAware Approximate
02:35AM 12.8971 -62.9161 152° Southeast  Level FlightAware Approximate
02:36AM 12.7832 -62.8528 152° Southeast  Level FlightAware Approximate
02:37AM 12.6692 -62.7895 152° Southeast  Level FlightAware Approximate
02:38AM 12.5552 -62.7263 152° Southeast  Level FlightAware Approximate
02:39AM 12.4411 -62.6631 152° Southeast  Level FlightAware Approximate
02:40AM 12.3271 -62.6000 152° Southeast  Level FlightAware Approximate
02:41AM 12.2130 -62.5370 152° Southeast  Level FlightAware Approximate
02:42AM 12.0990 -62.4740 152° Southeast  Level FlightAware Approximate
02:43AM 11.9849 -62.4110 152° Southeast  Level FlightAware Approximate
02:44AM 11.8708 -62.3482 152° Southeast  Level FlightAware Approximate
02:45AM 11.7567 -62.2853 152° Southeast  Level FlightAware Approximate
02:46AM 11.6426 -62.2226 152° Southeast  Level FlightAware Approximate
02:47AM 11.5284 -62.1598 152° Southeast  Level FlightAware Approximate
02:48AM 11.4143 -62.0971 152° Southeast  Level FlightAware Approximate
02:49AM 11.3001 -62.0345 152° Southeast  Level FlightAware Approximate
02:50AM 11.1859 -61.9719 152° Southeast  Level FlightAware Approximate
02:51AM 11.0717 -61.9094 152° Southeast  Level FlightAware Approximate
02:52AM 10.9576 -61.8469 152° Southeast  Level FlightAware Approximate
02:53AM 10.8433 -61.7845 152° Southeast  Level FlightAware Approximate
02:54AM 10.7291 -61.7221 152° Southeast  Level FlightAware Approximate
02:55AM 10.6149 -61.6598 152° Southeast  Level FlightAware Approximate
02:56AM 10.5006 -61.5975 152° Southeast  Level FlightAware Approximate
02:57AM 10.3863 -61.5353 152° Southeast  Level FlightAware Approximate
02:58AM 10.2721 -61.4731 152° Southeast  Level FlightAware Approximate
02:59AM 10.1578 -61.4109 152° Southeast  Level FlightAware Approximate
03:00AM 10.0435 -61.3488 152° Southeast  Level FlightAware Approximate
03:01AM 9.9292 -61.2867 152° Southeast  Level FlightAware Approximate
03:02AM 9.8148 -61.2247 152° Southeast  Level FlightAware Approximate
03:03AM 9.7006 -61.1626 152° Southeast  Level FlightAware Approximate
03:04AM 9.5864 -61.1004 152° Southeast  Level FlightAware Approximate
03:05AM 9.4722 -61.0383 152° Southeast  Level FlightAware Approximate
03:06AM 9.3579 -60.9762 152° Southeast  Level FlightAware Approximate
03:07AM 9.2437 -60.9142 152° Southeast  Level FlightAware Approximate
03:08AM 9.1294 -60.8521 152° Southeast  Level FlightAware Approximate
03:09AM 9.0151 -60.7902 152° Southeast  Level FlightAware Approximate
03:10AM 8.9008 -60.7283 152° Southeast  Level FlightAware Approximate
03:11AM 8.7865 -60.6664 152° Southeast  Level FlightAware Approximate
03:12AM 8.6722 -60.6045 152° Southeast  Level FlightAware Approximate
03:13AM 8.5579 -60.5428 152° Southeast  Level FlightAware Approximate
03:14AM 8.4436 -60.4810 152° Southeast  Level FlightAware Approximate
03:15AM 8.3309 -60.4202 152° Southeast  Level FlightAware Approximate
03:16AM 8.2183 -60.3594 152° Southeast  Level FlightAware Approximate
03:17AM 8.1056 -60.2986 152° Southeast  Level FlightAware Approximate
03:18AM 7.9929 -60.2379 152° Southeast  Level FlightAware Approximate
03:19AM 7.8802 -60.1773 152° Southeast  Level FlightAware Approximate
03:20AM 7.7676 -60.1166 152° Southeast  Level FlightAware Approximate
03:21AM 7.6549 -60.0560 152° Southeast  Level FlightAware Approximate
03:22AM 7.5422 -59.9954 152° Southeast  Level FlightAware Approximate
03:23AM 7.4295 -59.9349 152° Southeast  Level FlightAware Approximate
03:24AM 7.3168 -59.8744 152° Southeast  Level FlightAware Approximate
03:25AM 7.2040 -59.8139 152° Southeast  Level FlightAware Approximate
03:26AM 7.0913 -59.7534 152° Southeast  Level FlightAware Approximate
03:27AM 6.9785 -59.6930 152° Southeast  Level FlightAware Approximate
03:28AM 6.8658 -59.6326 152° Southeast  Level FlightAware Approximate
03:29AM 6.7530 -59.5722 152° Southeast  Level FlightAware Approximate
03:30AM 6.6403 -59.5119 152° Southeast  Level FlightAware Approximate
03:31AM 6.5275 -59.4516 152° Southeast  Level FlightAware Approximate
03:32AM 6.4147 -59.3913 152° Southeast  Level FlightAware Approximate
03:33AM 6.3019 -59.3310 152° Southeast  Level FlightAware Approximate
03:34AM 6.1891 -59.2708 152° Southeast  Level FlightAware Approximate
03:35AM 6.0763 -59.2106 152° Southeast  Level FlightAware Approximate
03:36AM 5.9635 -59.1504 152° Southeast  Level FlightAware Approximate
03:37AM 5.8507 -59.0902 152° Southeast  Level FlightAware Approximate
03:38AM 5.7379 -59.0301 152° Southeast  Level FlightAware Approximate
03:39AM 5.6251 -58.9700 152° Southeast  Level FlightAware Approximate
03:40AM 5.5122 -58.9099 152° Southeast  Level FlightAware Approximate
03:41AM 5.3994 -58.8498 152° Southeast  Level FlightAware Approximate
03:42AM 5.2866 -58.7898 152° Southeast  Level FlightAware Approximate
03:43AM 5.1737 -58.7298 152° Southeast  Level FlightAware Approximate
03:44AM 5.0609 -58.6698 152° Southeast  Level FlightAware Approximate
03:45AM 4.9480 -58.6098 152° Southeast  Level FlightAware Approximate
03:46AM 4.8351 -58.5498 152° Southeast  Level FlightAware Approximate
03:47AM 4.7222 -58.4899 152° Southeast  Level FlightAware Approximate
03:48AM 4.6094 -58.4300 152° Southeast  Level FlightAware Approximate
03:49AM 4.4965 -58.3701 152° Southeast  Level FlightAware Approximate
03:50AM 4.3836 -58.3102 152° Southeast  Level FlightAware Approximate
03:51AM 4.2707 -58.2504 152° Southeast  Level FlightAware Approximate
03:52AM 4.1578 -58.1905 152° Southeast  Level FlightAware Approximate
03:53AM 4.0449 -58.1307 152° Southeast  Level FlightAware Approximate
03:54AM 3.9320 -58.0709 152° Southeast  Level FlightAware Approximate
03:55AM 3.8191 -58.0111 152° Southeast  Level FlightAware Approximate
03:56AM 3.7063 -57.9511 152° Southeast  Level FlightAware Approximate
03:57AM 3.5936 -57.8910 152° Southeast  Level FlightAware Approximate
03:58AM 3.4809 -57.8308 152° Southeast  Level FlightAware Approximate
03:59AM 3.3682 -57.7707 152° Southeast  Level FlightAware Approximate
04:00AM 3.2555 -57.7106 152° Southeast  Level FlightAware Approximate
04:01AM 3.1427 -57.6505 152° Southeast  Level FlightAware Approximate
04:02AM 3.0300 -57.5904 152° Southeast  Level FlightAware Approximate
04:03AM 2.9171 -57.5307 152° Southeast  Level FlightAware Approximate
04:04AM 2.8041 -57.4711 152° Southeast  Level FlightAware Approximate
04:05AM 2.6911 -57.4115 152° Southeast  Level FlightAware Approximate
04:06AM 2.5782 -57.3518 152° Southeast  Level FlightAware Approximate
04:07AM 2.4652 -57.2922 152° Southeast  Level FlightAware Approximate
04:08AM 2.3522 -57.2326 152° Southeast  Level FlightAware Approximate
04:09AM 2.2393 -57.1730 152° Southeast  Level FlightAware Approximate
04:10AM 2.1263 -57.1135 152° Southeast  Level FlightAware Approximate
04:11AM 2.0133 -57.0539 152° Southeast  Level FlightAware Approximate
04:12AM 1.9003 -56.9943 152° Southeast  Level FlightAware Approximate
04:13AM 1.7874 -56.9348 152° Southeast  Level FlightAware Approximate
04:14AM 1.6744 -56.8752 152° Southeast  Level FlightAware Approximate
04:15AM 1.5614 -56.8157 152° Southeast  Level FlightAware Approximate
04:16AM 1.4484 -56.7562 152° Southeast  Level FlightAware Approximate
04:17AM 1.3354 -56.6968 152° Southeast  Level FlightAware Approximate
04:18AM 1.2223 -56.6373 152° Southeast  Level FlightAware Approximate
04:19AM 1.1093 -56.5779 152° Southeast  Level FlightAware Approximate
04:20AM 0.9963 -56.5185 152° Southeast  Level FlightAware Approximate
04:21AM 0.8832 -56.4590 152° Southeast  Level FlightAware Approximate
04:22AM 0.7702 -56.3996 152° Southeast  Level FlightAware Approximate
04:23AM 0.6574 -56.3403 152° Southeast  Level FlightAware Approximate
04:24AM 0.5445 -56.2810 152° Southeast  Level FlightAware Approximate
04:25AM 0.4317 -56.2217 152° Southeast  Level FlightAware Approximate
04:26AM 0.3189 -56.1624 152° Southeast  Level FlightAware Approximate
04:27AM 0.2060 -56.1031 152° Southeast  Level FlightAware Approximate
04:28AM 0.0932 -56.0438 152° Southeast  Level FlightAware Approximate
04:29AM -0.0196 -55.9845 152° Southeast  Level FlightAware Approximate
04:30AM -0.1324 -55.9252 152° Southeast  Level FlightAware Approximate
04:31AM -0.2453 -55.8659 152° Southeast  Level FlightAware Approximate
04:32AM -0.3581 -55.8066 152° Southeast  Level FlightAware Approximate
04:33AM -0.4709 -55.7473 152° Southeast  Level FlightAware Approximate
04:34AM -0.5838 -55.6880 152° Southeast  Level FlightAware Approximate
04:35AM -0.6966 -55.6287 152° Southeast  Level FlightAware Approximate
04:36AM -0.8094 -55.5694 152° Southeast  Level FlightAware Approximate
04:37AM -0.9223 -55.5101 152° Southeast  Level FlightAware Approximate
04:38AM -1.0351 -55.4507 152° Southeast  Level FlightAware Approximate
04:39AM -1.1479 -55.3914 152° Southeast  Level FlightAware Approximate
04:40AM -1.2608 -55.3321 152° Southeast  Level FlightAware Approximate
04:41AM -1.3736 -55.2728 152° Southeast  Level FlightAware Approximate
04:42AM -1.4864 -55.2134 152° Southeast  Level FlightAware Approximate
04:43AM -1.5992 -55.1541 152° Southeast  Level FlightAware Approximate
04:44AM -1.7120 -55.0947 152° Southeast  Level FlightAware Approximate
04:45AM -1.8249 -55.0354 152° Southeast  Level FlightAware Approximate
04:46AM -1.9377 -54.9760 152° Southeast  Level FlightAware Approximate
04:47AM -2.0505 -54.9167 152° Southeast  Level FlightAware Approximate
04:48AM -2.1633 -54.8573 152° Southeast  Level FlightAware Approximate
04:49AM -2.2761 -54.7979 152° Southeast  Level FlightAware Approximate
04:50AM -2.3889 -54.7385 152° Southeast  Level FlightAware Approximate
04:51AM -2.5017 -54.6791 152° Southeast  Level FlightAware Approximate
04:52AM -2.6145 -54.6197 152° Southeast  Level FlightAware Approximate
04:53AM -2.7273 -54.5602 152° Southeast  Level FlightAware Approximate
04:54AM -2.8401 -54.5008 152° Southeast  Level FlightAware Approximate
04:55AM -2.9529 -54.4413 152° Southeast  Level FlightAware Approximate
04:56AM -3.0657 -54.3819 152° Southeast  Level FlightAware Approximate
04:57AM -3.1785 -54.3224 152° Southeast  Level FlightAware Approximate
04:58AM -3.2913 -54.2629 152° Southeast  Level FlightAware Approximate
04:59AM -3.4041 -54.2034 152° Southeast  Level FlightAware Approximate
05:00AM -3.5168 -54.1439 152° Southeast  Level FlightAware Approximate
05:01AM -3.6296 -54.0844 152° Southeast  Level FlightAware Approximate
05:02AM -3.7424 -54.0248 152° Southeast  Level FlightAware Approximate
05:03AM -3.8551 -53.9653 152° Southeast  Level FlightAware Approximate
05:04AM -3.9679 -53.9057 152° Southeast  Level FlightAware Approximate
05:05AM -4.0807 -53.8461 152° Southeast  Level FlightAware Approximate
05:06AM -4.1934 -53.7865 152° Southeast  Level FlightAware Approximate
05:07AM -4.3062 -53.7269 152° Southeast  Level FlightAware Approximate
05:08AM -4.4189 -53.6672 152° Southeast  Level FlightAware Approximate
05:09AM -4.5316 -53.6076 152° Southeast  Level FlightAware Approximate
05:10AM -4.6444 -53.5479 152° Southeast  Level FlightAware Approximate
05:11AM -4.7571 -53.4882 152° Southeast  Level FlightAware Approximate
05:12AM -4.8698 -53.4285 152° Southeast  Level FlightAware Approximate
05:13AM -4.9825 -53.3687 152° Southeast  Level FlightAware Approximate
05:14AM -5.0953 -53.3090 152° Southeast  Level FlightAware Approximate
05:15AM -5.2080 -53.2492 152° Southeast  Level FlightAware Approximate
05:16AM -5.3207 -53.1894 152° Southeast  Level FlightAware Approximate
05:17AM -5.4334 -53.1296 152° Southeast  Level FlightAware Approximate
05:18AM -5.5461 -53.0697 152° Southeast  Level FlightAware Approximate
05:19AM -5.6587 -53.0099 152° Southeast  Level FlightAware Approximate
05:20AM -5.7714 -52.9500 152° Southeast  Level FlightAware Approximate
05:21AM -5.8841 -52.8900 152° Southeast  Level FlightAware Approximate
05:22AM -5.9967 -52.8301 152° Southeast  Level FlightAware Approximate
05:23AM -6.1094 -52.7701 152° Southeast  Level FlightAware Approximate
05:24AM -6.2221 -52.7102 152° Southeast  Level FlightAware Approximate
05:25AM -6.3347 -52.6501 152° Southeast  Level FlightAware Approximate
05:26AM -6.4473 -52.5901 152° Southeast  Level FlightAware Approximate
05:27AM -6.5600 -52.5300 152° Southeast  Level FlightAware Approximate
05:28AM -6.6726 -52.4699 152° Southeast  Level FlightAware Approximate
05:29AM -6.7852 -52.4098 152° Southeast  Level FlightAware Approximate
05:30AM -6.8978 -52.3497 152° Southeast  Level FlightAware Approximate
05:31AM -7.0104 -52.2895 152° Southeast  Level FlightAware Approximate
05:32AM -7.1230 -52.2293 152° Southeast  Level FlightAware Approximate
05:33AM -7.2356 -52.1690 152° Southeast  Level FlightAware Approximate
05:34AM -7.3482 -52.1088 152° Southeast  Level FlightAware Approximate
05:35AM -7.4607 -52.0485 152° Southeast  Level FlightAware Approximate
05:36AM -7.5733 -51.9881 152° Southeast  Level FlightAware Approximate
05:37AM -7.6859 -51.9278 152° Southeast  Level FlightAware Approximate
05:38AM -7.7984 -51.8674 152° Southeast  Level FlightAware Approximate
05:39AM -7.9109 -51.8069 152° Southeast  Level FlightAware Approximate
05:40AM -8.0235 -51.7465 152° Southeast  Level FlightAware Approximate
05:41AM -8.1360 -51.6860 152° Southeast  Level FlightAware Approximate
05:42AM -8.2485 -51.6255 152° Southeast  Level FlightAware Approximate
05:43AM -8.3610 -51.5649 152° Southeast  Level FlightAware Approximate
05:44AM -8.4735 -51.5043 152° Southeast  Level FlightAware Approximate
05:45AM -8.5860 -51.4437 152° Southeast  Level FlightAware Approximate
05:46AM -8.6984 -51.3830 152° Southeast  Level FlightAware Approximate
05:47AM -8.8109 -51.3223 152° Southeast  Level FlightAware Approximate
05:48AM -8.9234 -51.2616 152° Southeast  Level FlightAware Approximate
05:49AM -9.0358 -51.2008 152° Southeast  Level FlightAware Approximate
05:50AM -9.1482 -51.1400 152° Southeast  Level FlightAware Approximate
05:51AM -9.2606 -51.0791 152° Southeast  Level FlightAware Approximate
05:52AM -9.3730 -51.0182 152° Southeast  Level FlightAware Approximate
05:53AM -9.4854 -50.9573 152° Southeast  Level FlightAware Approximate
05:54AM -9.5978 -50.8963 152° Southeast  Level FlightAware Approximate
05:55AM -9.7102 -50.8353 152° Southeast  Level FlightAware Approximate
05:56AM -9.8226 -50.7743 152° Southeast  Level FlightAware Approximate
05:57AM -9.9349 -50.7132 152° Southeast  Level FlightAware Approximate
05:58AM -10.0473 -50.6520 152° Southeast  Level FlightAware Approximate
05:59AM -10.1596 -50.5909 152° Southeast  Level FlightAware Approximate
06:00AM -10.2720 -50.5296 152° Southeast  Level FlightAware Approximate
06:01AM -10.3843 -50.4684 152° Southeast  Level FlightAware Approximate
06:02AM -10.4966 -50.4071 152° Southeast  Level FlightAware Approximate
06:03AM -10.6089 -50.3457 152° Southeast  Level FlightAware Approximate
06:04AM -10.7212 -50.2843 152° Southeast  Level FlightAware Approximate
06:05AM -10.8334 -50.2228 152° Southeast  Level FlightAware Approximate
06:06AM -10.9457 -50.1614 152° Southeast  Level FlightAware Approximate
06:07AM -11.0579 -50.0998 152° Southeast  Level FlightAware Approximate
06:08AM -11.1701 -50.0382 152° Southeast  Level FlightAware Approximate
06:09AM -11.2824 -49.9766 152° Southeast  Level FlightAware Approximate
06:10AM -11.3946 -49.9149 152° Southeast  Level FlightAware Approximate
06:11AM -11.5068 -49.8532 152° Southeast  Level FlightAware Approximate
06:12AM -11.6189 -49.7914 152° Southeast  Level FlightAware Approximate
06:13AM -11.7311 -49.7296 152° Southeast  Level FlightAware Approximate
06:14AM -11.8433 -49.6677 152° Southeast  Level FlightAware Approximate
06:15AM -11.9554 -49.6058 152° Southeast  Level FlightAware Approximate
06:16AM -12.0675 -49.5438 152° Southeast  Level FlightAware Approximate
06:17AM -12.1797 -49.4818 152° Southeast  Level FlightAware Approximate
06:18AM -12.2917 -49.4197 152° Southeast  Level FlightAware Approximate
06:19AM -12.4038 -49.3575 152° Southeast  Level FlightAware Approximate
06:20AM -12.5159 -49.2953 152° Southeast  Level FlightAware Approximate
06:21AM -12.6280 -49.2331 152° Southeast  Level FlightAware Approximate
06:22AM -12.7400 -49.1708 152° Southeast  Level FlightAware Approximate
06:23AM -12.8520 -49.1084 152° Southeast  Level FlightAware Approximate
06:24AM -12.9640 -49.0460 151° Southeast  Level FlightAware Approximate
06:25AM -13.0760 -48.9835 151° Southeast  Level FlightAware Approximate
06:26AM -13.1880 -48.9210 151° Southeast  Level FlightAware Approximate
06:27AM -13.3000 -48.8584 151° Southeast  Level FlightAware Approximate
06:28AM -13.4119 -48.7958 151° Southeast  Level FlightAware Approximate
06:29AM -13.5239 -48.7331 151° Southeast  Level FlightAware Approximate
06:30AM -13.6358 -48.6703 151° Southeast  Level FlightAware Approximate
06:31AM -13.7477 -48.6075 151° Southeast  Level FlightAware Approximate
06:32AM -13.8596 -48.5446 151° Southeast  Level FlightAware Approximate
06:33AM -13.9715 -48.4817 151° Southeast  Level FlightAware Approximate
06:34AM -14.0833 -48.4187 151° Southeast  Level FlightAware Approximate
06:35AM -14.1952 -48.3556 151° Southeast  Level FlightAware Approximate
06:36AM -14.3070 -48.2925 151° Southeast  Level FlightAware Approximate
06:37AM -14.4188 -48.2293 151° Southeast  Level FlightAware Approximate
06:38AM -14.5306 -48.1661 151° Southeast  Level FlightAware Approximate
06:39AM -14.6424 -48.1028 151° Southeast  Level FlightAware Approximate
06:40AM -14.7541 -48.0394 151° Southeast  Level FlightAware Approximate
06:41AM -14.8659 -47.9759 151° Southeast  Level FlightAware Approximate
06:42AM -14.9776 -47.9124 151° Southeast  Level FlightAware Approximate
06:43AM -15.0893 -47.8489 151° Southeast  Level FlightAware Approximate
06:44AM -15.2010 -47.7852 151° Southeast  Level FlightAware Approximate
06:45AM -15.3126 -47.7215 151° Southeast  Level FlightAware Approximate
06:46AM -15.4243 -47.6577 151° Southeast  Level FlightAware Approximate
06:47AM -15.5353 -47.5942 151° Southeast  Level FlightAware Approximate
06:48AM -15.6463 -47.5307 151° Southeast  Level FlightAware Approximate
06:49AM -15.7573 -47.4670 151° Southeast  Level FlightAware Approximate
06:50AM -15.8682 -47.4033 151° Southeast  Level FlightAware Approximate
06:51AM -15.9792 -47.3396 151° Southeast  Level FlightAware Approximate
06:52AM -16.0901 -47.2757 151° Southeast  Level FlightAware Approximate
06:53AM -16.2010 -47.2118 151° Southeast  Level FlightAware Approximate
06:54AM -16.3119 -47.1478 151° Southeast  Level FlightAware Approximate
06:55AM -16.4228 -47.0838 151° Southeast  Level FlightAware Approximate
06:56AM -16.5336 -47.0196 151° Southeast  Level FlightAware Approximate
06:57AM -16.6445 -46.9554 151° Southeast  Level FlightAware Approximate
06:58AM -16.7553 -46.8911 151° Southeast  Level FlightAware Approximate
06:59AM -16.8661 -46.8268 151° Southeast  Level FlightAware Approximate
07:00AM -16.9769 -46.7623 151° Southeast  Level FlightAware Approximate
07:01AM -17.0876 -46.6978 151° Southeast  Level FlightAware Approximate
07:02AM -17.1983 -46.6333 151° Southeast  Level FlightAware Approximate
07:03AM -17.3090 -46.5686 151° Southeast  Level FlightAware Approximate
07:04AM -17.4197 -46.5038 151° Southeast  Level FlightAware Approximate
07:05AM -17.5304 -46.4390 151° Southeast  Level FlightAware Approximate
07:06AM -17.6411 -46.3741 151° Southeast  Level FlightAware Approximate
07:07AM -17.7517 -46.3092 151° Southeast  Level FlightAware Approximate
07:08AM -17.8623 -46.2441 151° Southeast  Level FlightAware Approximate
07:09AM -17.9729 -46.1790 151° Southeast  Level FlightAware Approximate
07:10AM -18.0834 -46.1137 151° Southeast  Level FlightAware Approximate
07:11AM -18.1940 -46.0484 151° Southeast  Level FlightAware Approximate
07:12AM -18.3045 -45.9831 151° Southeast  Level FlightAware Approximate
07:13AM -18.4150 -45.9176 151° Southeast  Level FlightAware Approximate
07:14AM -18.5255 -45.8520 151° Southeast  Level FlightAware Approximate
07:15AM -18.6359 -45.7864 151° Southeast  Level FlightAware Approximate
07:16AM -18.7463 -45.7207 151° Southeast  Level FlightAware Approximate
07:17AM -18.8568 -45.6549 151° Southeast  Level FlightAware Approximate
07:18AM -18.9671 -45.5890 151° Southeast  Level FlightAware Approximate
07:19AM -19.0775 -45.5230 151° Southeast  Level FlightAware Approximate
07:20AM -19.1878 -45.4569 151° Southeast  Level FlightAware Approximate
07:21AM -19.2981 -45.3908 150° Southeast  Level FlightAware Approximate
07:22AM -19.4084 -45.3245 150° Southeast  Level FlightAware Approximate
07:23AM -19.5187 -45.2582 150° Southeast  Level FlightAware Approximate
07:24AM -19.6289 -45.1917 150° Southeast  Level FlightAware Approximate
07:25AM -19.7391 -45.1252 150° Southeast  Level FlightAware Approximate
07:26AM -19.8493 -45.0586 150° Southeast  Level FlightAware Approximate
07:27AM -19.9595 -44.9919 150° Southeast  Level FlightAware Approximate
07:28AM -20.0696 -44.9251 150° Southeast  Level FlightAware Approximate
07:29AM -20.1798 -44.8582 150° Southeast  Level FlightAware Approximate
07:30AM -20.2899 -44.7912 150° Southeast  Level FlightAware Approximate
07:31AM -20.3999 -44.7241 150° Southeast  Level FlightAware Approximate
07:32AM -20.5100 -44.6570 150° Southeast  Level FlightAware Approximate
07:33AM -20.6200 -44.5897 150° Southeast  Level FlightAware Approximate
07:34AM -20.7299 -44.5223 150° Southeast  Level FlightAware Approximate
07:35AM -20.8399 -44.4548 150° Southeast  Level FlightAware Approximate
07:36AM -20.9498 -44.3873 150° Southeast  Level FlightAware Approximate
07:37AM -21.0567 -44.3143 146° Southeast  Level FlightAware Approximate
07:38AM -21.1646 -44.2430 150° Southeast  Level FlightAware Approximate
07:39AM -21.2761 -44.1786 155° Southeast  Level FlightAware Approximate
07:40AM -21.3877 -44.1141 151° Southeast  Level FlightAware Approximate
07:41AM -21.4969 -44.0451 146° Southeast  Level FlightAware Approximate
07:42AM -21.6032 -43.9709 150° Southeast  Level FlightAware Approximate
07:43AM -21.7128 -43.9024 150° Southeast  Level FlightAware Approximate
07:44AM -21.8186 -43.8272 146° Southeast  Level FlightAware Approximate
07:45AM -21.9300 -43.7623 152° Southeast  Level FlightAware Approximate
07:46AM -22.0424 -43.6991 152° Southeast  Level FlightAware Approximate
07:47AM -22.1526 -43.6316 148° Southeast  Level FlightAware Approximate
07:48AM -22.2606 -43.5599 150° Southeast  Level FlightAware Approximate
07:49AM -22.3699 -43.4904 150° Southeast  Level FlightAware Approximate
07:50AM -22.4786 -43.4198 148° Southeast  Level FlightAware Approximate
07:51AM -22.5914 -43.3586 137° Southeast  Level FlightAware Approximate
07:52AM -22.6964 -43.2819 145° Southeast  Level FlightAware Approximate
07:53AM -22.8000 -43.2167 151° Southeast  Level FlightAware Approximate
07:54AM -22.8089 -43.2436 151° Southeast  Level Estimated
07:55AM -22.8089 -43.2436 151° Southeast  Level Estimated
07:56AM -22.8089 -43.2436 151° Southeast  Level Estimated
07:57AM -22.8089 -43.2436 151° Southeast  Level Estimated
07:58AM -22.8089 -43.2436 151° Southeast  Level Estimated
07:59AM -22.8089 -43.2436 151° Southeast  Level Estimated
08:00AM -22.8089 -43.2436 151° Southeast  Level Estimated
08:01AM -22.8089 -43.2436 151° Southeast  Level Estimated
08:02AM -22.8089 -43.2436 151° Southeast  Level Estimated
08:03AM -22.8089 -43.2436 151° Southeast  Level Estimated
08:04AM -22.8089 -43.2436 151° Southeast  Level Estimated
08:05AM -22.8089 -43.2436 151° Southeast  Level Estimated
08:06AM -22.8089 -43.2436 151° Southeast  Level Estimated
08:07AM -22.8089 -43.2436 151° Southeast  Level Estimated